Time;durP1;ratioP1;P1;durP2;ratioP2;P2;SDS_P1;SDS_P2;PMS_P1;PMS_P2;Temp;Humidity;BMP_temperature;BMP_pressure;BME280_temperature;BME280_humidity;BME280_pressure;Samples;Min_cycle;Max_cycle;Signal;HPM_P1;HPM_P2
2021/07/19 00:00:14;;;;;;;9.20;5.07;;;18.20;99.90;;;;;;5016580;28;20101;-72
2021/07/19 00:02:41;;;;;;;6.28;4.85;;;18.20;99.90;;;;;;5016212;28;20025;-71
2021/07/19 00:05:09;;;;;;;5.60;5.10;;;18.20;99.90;;;;;;5016372;28;20416;-71
2021/07/19 00:07:35;;;;;;;5.35;4.53;;;18.10;99.90;;;;;;5001206;28;20089;-71
2021/07/19 00:10:03;;;;;;;9.50;5.18;;;18.10;99.90;;;;;;5015913;28;20050;-71
2021/07/19 00:12:28;;;;;;;6.13;5.05;;;18.00;99.90;;;;;;5016064;28;20520;-71
2021/07/19 00:14:54;;;;;;;5.68;4.47;;;18.00;99.90;;;;;;5015046;28;20029;-71
2021/07/19 00:17:20;;;;;;;8.38;5.00;;;18.00;99.90;;;;;;5016072;28;20046;-70
2021/07/19 00:19:48;;;;;;;4.80;4.43;;;17.90;99.90;;;;;;5015595;28;20469;-71
2021/07/19 00:22:14;;;;;;;6.90;5.00;;;18.00;99.90;;;;;;5015308;28;20034;-71
2021/07/19 00:24:40;;;;;;;7.93;5.13;;;17.90;99.90;;;;;;5015994;28;20033;-71
2021/07/19 00:27:06;;;;;;;8.50;4.25;;;17.90;99.90;;;;;;5015495;28;20022;-70
2021/07/19 00:29:32;;;;;;;6.80;4.53;;;17.80;99.90;;;;;;5015130;28;20030;-72
2021/07/19 00:31:57;;;;;;;6.07;4.38;;;17.80;99.90;;;;;;5015160;28;20030;-72
2021/07/19 00:34:23;;;;;;;5.32;4.38;;;17.80;99.90;;;;;;5016492;28;20018;-70
2021/07/19 00:36:50;;;;;;;5.30;4.80;;;17.80;99.90;;;;;;5014644;28;20030;-72
2021/07/19 00:39:16;;;;;;;5.63;4.43;;;17.80;99.90;;;;;;5016018;28;20038;-70
2021/07/19 00:41:42;;;;;;;6.47;4.05;;;17.50;99.90;;;;;;5015790;28;20026;-72
2021/07/19 00:44:07;;;;;;;4.97;4.45;;;17.70;99.90;;;;;;5014752;28;20504;-71
2021/07/19 00:46:34;;;;;;;4.72;4.28;;;17.70;99.90;;;;;;5015431;28;20021;-70
2021/07/19 00:49:00;;;;;;;4.40;3.92;;;17.70;99.90;;;;;;5015229;28;20022;-72
2021/07/19 00:51:27;;;;;;;11.25;4.63;;;17.60;99.90;;;;;;5013976;28;20497;-71
2021/07/19 00:53:52;;;;;;;6.18;4.40;;;17.60;99.90;;;;;;5015657;28;20032;-71
2021/07/19 00:56:19;;;;;;;5.32;4.50;;;17.60;99.90;;;;;;5015347;28;20018;-71
2021/07/19 00:58:48;;;;;;;8.95;4.35;;;17.60;99.90;;;;;;5014320;28;20371;-72
2021/07/19 01:01:15;;;;;;;4.57;4.10;;;17.50;99.90;;;;;;5015492;28;20084;-71
2021/07/19 01:03:43;;;;;;;4.65;3.88;;;17.50;99.90;;;;;;5015249;28;20389;-71
2021/07/19 01:06:10;;;;;;;5.75;4.20;;;17.50;99.90;;;;;;5010459;28;20030;-71
2021/07/19 01:08:37;;;;;;;5.55;4.22;;;17.40;99.90;;;;;;5004822;28;20506;-71
2021/07/19 01:11:02;;;;;;;4.68;4.18;;;17.40;99.90;;;;;;5014148;28;20053;-72
2021/07/19 01:13:28;;;;;;;5.57;4.00;;;17.40;99.90;;;;;;5015311;28;20366;-71
2021/07/19 01:15:54;;;;;;;5.18;4.50;;;17.40;99.90;;;;;;5015191;28;20084;-71
2021/07/19 01:18:20;;;;;;;7.68;5.07;;;17.40;99.90;;;;;;5014698;28;20125;-72
2021/07/19 01:21:30;;;;;;;8.18;5.07;;;17.30;99.90;;;;;;5015231;28;20022;-71
2021/07/19 01:24:17;;;;;;;7.40;4.83;;;17.30;99.90;;;;;;5014848;28;20370;-72
2021/07/19 01:26:54;;;;;;;7.30;4.72;;;17.30;99.90;;;;;;5013823;28;20508;-71
2021/07/19 01:29:21;;;;;;;5.07;4.57;;;17.30;99.90;;;;;;5015029;28;20030;-70
2021/07/19 01:31:48;;;;;;;5.97;4.50;;;17.20;99.90;;;;;;5010325;28;20019;-71
2021/07/19 01:34:18;;;;;;;5.85;4.55;;;17.20;99.90;;;;;;5004604;28;20060;-71
2021/07/19 01:36:48;;;;;;;7.57;4.55;;;17.20;99.90;;;;;;5013972;28;20042;-72
2021/07/19 01:39:15;;;;;;;5.47;4.72;;;17.20;99.90;;;;;;5013821;28;20489;-71
2021/07/19 01:41:41;;;;;;;5.30;4.57;;;17.10;99.90;;;;;;5014665;28;20061;-72
2021/07/19 01:44:09;;;;;;;6.28;4.60;;;17.10;99.90;;;;;;5014306;28;20148;-72
2021/07/19 01:46:36;;;;;;;7.00;5.25;;;17.10;99.90;;;;;;5013923;28;20469;-72
2021/07/19 01:49:03;;;;;;;5.72;4.70;;;17.10;99.90;;;;;;5014350;28;20028;-72
2021/07/19 01:51:30;;;;;;;8.02;4.75;;;17.00;99.90;;;;;;5014202;28;20032;-72
2021/07/19 01:53:57;;;;;;;6.35;5.03;;;17.10;99.90;;;;;;5012947;28;20121;-71
2021/07/19 01:56:24;;;;;;;6.90;4.63;;;17.10;99.90;;;;;;5014314;28;20355;-71
2021/07/19 01:58:51;;;;;;;8.23;5.22;;;17.00;99.90;;;;;;5014008;28;20381;-72
2021/07/19 02:01:17;;;;;;;6.90;5.50;;;17.00;99.90;;;;;;5013638;28;20412;-72
2021/07/19 02:03:43;;;;;;;9.90;4.55;;;16.90;99.90;;;;;;5014171;28;20041;-72
2021/07/19 02:06:09;;;;;;;6.60;5.38;;;17.00;99.90;;;;;;5011207;28;20378;-72
2021/07/19 02:08:37;;;;;;;10.82;5.63;;;16.90;99.90;;;;;;5002480;28;20026;-72
2021/07/19 02:11:04;;;;;;;7.63;5.88;;;16.90;99.90;;;;;;5013381;28;20060;-72
2021/07/19 02:13:32;;;;;;;10.65;5.03;;;16.90;99.90;;;;;;5014152;28;20018;-72
2021/07/19 02:15:59;;;;;;;7.82;5.13;;;16.90;99.90;;;;;;5012678;28;20037;-70
2021/07/19 02:18:26;;;;;;;6.53;4.70;;;16.80;99.90;;;;;;5013766;28;20124;-71
2021/07/19 02:20:54;;;;;;;10.55;5.25;;;16.90;99.90;;;;;;4999064;28;20023;-72
2021/07/19 02:23:21;;;;;;;6.00;5.50;;;16.80;99.90;;;;;;4996651;28;20498;-71
2021/07/19 02:25:49;;;;;;;7.28;5.20;;;16.80;99.90;;;;;;5000549;28;20049;-70
2021/07/19 02:28:15;;;;;;;6.95;4.45;;;16.80;99.90;;;;;;5008231;28;20029;-70
2021/07/19 02:30:42;;;;;;;8.27;5.07;;;16.80;99.90;;;;;;5005457;28;20022;-71
2021/07/19 02:33:10;;;;;;;7.97;5.15;;;16.80;99.90;;;;;;5013160;28;20068;-71
2021/07/19 02:35:36;;;;;;;8.75;5.05;;;16.80;99.90;;;;;;5012814;28;20425;-72
2021/07/19 02:38:08;;;;;;;7.75;5.22;;;16.70;99.90;;;;;;4999212;28;20117;-71
2021/07/19 02:40:34;;;;;;;9.05;5.80;;;16.70;99.90;;;;;;5013548;28;20030;-71
2021/07/19 02:43:05;;;;;;;5.65;5.05;;;16.70;99.90;;;;;;5012376;28;20367;-72
2021/07/19 02:45:41;;;;;;;7.28;5.30;;;16.60;99.90;;;;;;5013582;28;20026;-71
2021/07/19 02:48:10;;;;;;;5.43;4.72;;;16.60;99.90;;;;;;5012921;28;20026;-72
2021/07/19 02:50:37;;;;;;;7.78;5.80;;;16.60;99.90;;;;;;5012705;28;20029;-70
2021/07/19 02:53:07;;;;;;;5.95;5.35;;;16.60;99.90;;;;;;5013128;28;20025;-72
2021/07/19 02:55:33;;;;;;;6.90;6.22;;;16.50;99.90;;;;;;4999623;28;20036;-71
2021/07/19 02:58:05;;;;;;;10.25;5.80;;;16.50;99.90;;;;;;5012114;28;20041;-71
2021/07/19 03:00:32;;;;;;;11.10;6.90;;;16.50;99.90;;;;;;5013085;28;20484;-72
2021/07/19 03:03:02;;;;;;;7.32;6.28;;;16.50;99.90;;;;;;5012836;28;20034;-70
2021/07/19 03:05:32;;;;;;;10.73;6.65;;;16.40;99.90;;;;;;5012332;28;20018;-71
2021/07/19 03:07:59;;;;;;;6.72;5.82;;;16.50;99.90;;;;;;5012981;28;20105;-71
2021/07/19 03:10:27;;;;;;;9.45;6.43;;;16.40;99.90;;;;;;5012550;28;20042;-72
2021/07/19 03:12:58;;;;;;;6.70;6.10;;;16.40;99.90;;;;;;5012624;28;20545;-71
2021/07/19 03:15:32;;;;;;;7.32;6.57;;;16.30;99.90;;;;;;5012946;28;20026;-71
2021/07/19 03:18:01;;;;;;;8.70;6.47;;;16.30;99.90;;;;;;5011959;28;20037;-71
2021/07/19 03:20:27;;;;;;;7.93;6.18;;;16.30;99.90;;;;;;5012505;28;20018;-71
2021/07/19 03:22:54;;;;;;;8.00;5.75;;;16.20;99.90;;;;;;5012409;28;20044;-71
2021/07/19 03:25:24;;;;;;;10.50;6.05;;;16.20;99.90;;;;;;5012192;28;20072;-71
2021/07/19 03:27:54;;;;;;;9.35;6.45;;;16.30;99.90;;;;;;4993929;28;20517;-72
2021/07/19 03:30:20;;;;;;;7.13;5.90;;;16.20;99.90;;;;;;5012751;28;20030;-71
2021/07/19 03:32:49;;;;;;;8.40;5.85;;;16.20;99.90;;;;;;5011575;28;20034;-71
2021/07/19 03:35:21;;;;;;;8.80;6.55;;;16.20;99.90;;;;;;5012582;28;20030;-71
2021/07/19 03:37:48;;;;;;;12.55;6.30;;;16.20;99.90;;;;;;5011869;28;20068;-72
2021/07/19 03:40:16;;;;;;;9.05;7.45;;;16.20;99.90;;;;;;5011720;28;20068;-71
2021/07/19 03:42:43;;;;;;;10.45;6.03;;;16.20;99.90;;;;;;5012076;28;20551;-72
2021/07/19 03:45:14;;;;;;;11.18;6.63;;;16.20;99.90;;;;;;5012470;28;20546;-74
2021/07/19 03:47:41;;;;;;;11.32;6.63;;;16.10;99.90;;;;;;5011827;28;20079;-73
2021/07/19 03:50:09;;;;;;;7.75;6.90;;;16.10;99.90;;;;;;5012474;28;20018;-72
2021/07/19 03:52:38;;;;;;;11.95;7.68;;;16.10;99.90;;;;;;5012216;28;20033;-73
2021/07/19 03:55:06;;;;;;;9.77;7.63;;;16.10;99.90;;;;;;5012432;28;20110;-73
2021/07/19 03:57:33;;;;;;;10.43;6.82;;;16.00;99.90;;;;;;5012039;28;20124;-73
2021/07/19 04:00:00;;;;;;;13.65;7.20;;;16.00;99.90;;;;;;5011098;28;20033;-73
2021/07/19 04:02:27;;;;;;;9.32;6.60;;;16.00;99.90;;;;;;5012271;28;20038;-73
2021/07/19 04:05:03;;;;;;;10.45;7.40;;;16.00;99.90;;;;;;5011719;28;20391;-72
2021/07/19 04:07:30;;;;;;;7.75;6.95;;;16.10;99.90;;;;;;5011867;28;20581;-73
2021/07/19 04:09:57;;;;;;;9.10;6.20;;;16.00;99.90;;;;;;5011401;28;20437;-73
2021/07/19 04:12:23;;;;;;;5.63;5.03;;;16.10;99.90;;;;;;5012003;28;20037;-73
2021/07/19 04:14:49;;;;;;;7.28;5.10;;;16.10;99.90;;;;;;5010985;28;20022;-73
2021/07/19 04:17:17;;;;;;;6.43;5.20;;;16.10;99.90;;;;;;5012052;28;20107;-72
2021/07/19 04:19:45;;;;;;;6.07;4.10;;;16.10;99.90;;;;;;5012129;28;20641;-73
2021/07/19 04:22:13;;;;;;;6.00;5.40;;;16.10;99.90;;;;;;5011285;28;20040;-72
2021/07/19 04:24:39;;;;;;;8.50;6.03;;;16.10;99.90;;;;;;5012056;28;20026;-72
2021/07/19 04:27:04;;;;;;;7.45;5.93;;;16.20;99.90;;;;;;5011876;28;20108;-73
2021/07/19 04:29:30;;;;;;;9.48;6.53;;;16.20;99.90;;;;;;4997446;28;20105;-71
2021/07/19 04:31:57;;;;;;;12.70;7.32;;;16.20;99.90;;;;;;5011942;28;20053;-73
2021/07/19 04:34:30;;;;;;;8.40;6.97;;;16.30;99.90;;;;;;5011730;28;20033;-72
2021/07/19 04:37:13;;;;;;;8.02;7.25;;;16.30;99.90;;;;;;5010912;28;20034;-72
2021/07/19 04:39:40;;;;;;;8.90;6.57;;;16.40;99.90;;;;;;5013566;28;20037;-72
2021/07/19 04:42:07;;;;;;;9.32;6.82;;;16.40;99.90;;;;;;5014837;28;20022;-73
2021/07/19 04:44:34;;;;;;;6.90;5.82;;;16.40;99.90;;;;;;5015295;28;20379;-74
2021/07/19 04:47:00;;;;;;;8.05;7.10;;;16.50;99.90;;;;;;5015124;28;20030;-73
2021/07/19 04:49:27;;;;;;;13.80;7.25;;;16.50;99.90;;;;;;5014972;28;20030;-72
2021/07/19 04:51:53;;;;;;;11.13;7.82;;;16.60;99.90;;;;;;5015274;28;20029;-73
2021/07/19 04:54:29;;;;;;;10.95;7.25;;;16.70;99.90;;;;;;5015536;28;20029;-73
2021/07/19 04:56:58;;;;;;;11.13;7.22;;;16.70;99.90;;;;;;5014322;28;20060;-72
2021/07/19 04:59:27;;;;;;;11.15;8.10;;;16.80;99.90;;;;;;5015395;28;20026;-73
2021/07/19 05:01:55;;;;;;;7.90;7.10;;;16.90;99.90;;;;;;5014706;28;20018;-73
2021/07/19 05:04:25;;;;;;;7.90;5.90;;;17.00;99.90;;;;;;5014740;28;20391;-72
2021/07/19 05:06:52;;;;;;;7.70;6.47;;;17.00;99.90;;;;;;5015004;28;20489;-72
2021/07/19 05:09:19;;;;;;;10.07;6.80;;;17.10;99.90;;;;;;5015232;28;20073;-73
2021/07/19 05:11:47;;;;;;;8.73;7.25;;;17.20;99.90;;;;;;5014007;28;20038;-73
2021/07/19 05:14:13;;;;;;;7.32;6.53;;;17.20;99.90;;;;;;5015349;28;20513;-72
2021/07/19 05:16:40;;;;;;;13.15;7.25;;;17.20;99.90;;;;;;5015100;28;20026;-73
2021/07/19 05:19:06;;;;;;;8.77;7.03;;;17.20;99.90;;;;;;5000291;28;20081;-73
2021/07/19 05:21:35;;;;;;;8.90;7.13;;;17.20;99.90;;;;;;5014900;28;20500;-73
2021/07/19 05:24:02;;;;;;;11.18;7.15;;;17.20;99.90;;;;;;5014504;28;20018;-73
2021/07/19 05:26:29;;;;;;;9.32;8.43;;;17.20;99.90;;;;;;5014299;28;20072;-73
2021/07/19 05:28:56;;;;;;;9.48;7.68;;;17.20;99.90;;;;;;5002125;28;20035;-72
2021/07/19 05:31:23;;;;;;;15.65;8.20;;;17.20;99.90;;;;;;5001017;28;20371;-74
2021/07/19 05:33:49;;;;;;;15.02;7.43;;;17.20;99.90;;;;;;5015955;28;20088;-74
2021/07/19 05:36:14;;;;;;;10.77;7.88;;;17.20;99.90;;;;;;5014516;28;20479;-73
2021/07/19 05:38:41;;;;;;;11.32;7.13;;;17.20;99.90;;;;;;5013983;28;20037;-73
2021/07/19 05:41:08;;;;;;;9.48;7.22;;;17.20;99.90;;;;;;5014080;28;20022;-72
2021/07/19 05:43:34;;;;;;;10.63;7.70;;;17.20;99.90;;;;;;5014510;28;20393;-73
2021/07/19 05:46:00;;;;;;;11.88;7.22;;;17.20;99.90;;;;;;5013645;28;20105;-73
2021/07/19 05:48:25;;;;;;;10.02;8.43;;;17.30;99.90;;;;;;5012923;28;20120;-73
2021/07/19 05:50:51;;;;;;;9.30;7.90;;;17.30;99.90;;;;;;5013630;28;20113;-72
2021/07/19 05:53:17;;;;;;;10.25;8.27;;;17.40;99.90;;;;;;5013525;28;20124;-73
2021/07/19 05:55:43;;;;;;;9.10;7.72;;;17.60;99.90;;;;;;5014092;28;20482;-72
2021/07/19 05:58:09;;;;;;;12.27;8.23;;;17.70;99.90;;;;;;5014203;28;20506;-74
2021/07/19 06:00:35;;;;;;;11.95;8.23;;;17.80;99.90;;;;;;5014038;28;20052;-73
2021/07/19 06:03:02;;;;;;;9.40;7.60;;;17.90;99.90;;;;;;5013882;28;20378;-73
2021/07/19 06:05:28;;;;;;;13.68;7.90;;;17.90;99.90;;;;;;5014117;28;20030;-74
2021/07/19 06:07:53;;;;;;;10.63;7.93;;;18.00;99.90;;;;;;5001507;28;20539;-72
2021/07/19 06:10:19;;;;;;;15.70;8.05;;;18.10;99.90;;;;;;5011927;28;20042;-72
2021/07/19 06:12:45;;;;;;;12.15;8.18;;;18.20;99.90;;;;;;5013865;28;20374;-72
2021/07/19 06:15:12;;;;;;;9.52;7.95;;;18.30;99.90;;;;;;5013417;28;20390;-72
2021/07/19 06:17:38;;;;;;;9.18;8.23;;;18.30;99.90;;;;;;5014125;28;20034;-72
2021/07/19 06:20:28;;;;;;;11.60;8.05;;;18.40;99.90;;;;;;5013508;28;20060;-72
2021/07/19 06:23:00;;;;;;;8.15;7.35;;;18.40;99.90;;;;;;5013608;28;20056;-72
2021/07/19 06:25:26;;;;;;;9.13;6.68;;;18.50;99.90;;;;;;5013757;28;20034;-72
2021/07/19 06:27:52;;;;;;;9.57;7.68;;;18.60;99.90;;;;;;5008236;28;20034;-72
2021/07/19 06:30:17;;;;;;;10.05;6.80;;;18.70;99.90;;;;;;5004213;28;20540;-72
2021/07/19 06:32:43;;;;;;;9.95;7.75;;;18.80;99.90;;;;;;5013369;28;20377;-72
2021/07/19 06:35:09;;;;;;;9.57;6.95;;;18.90;99.90;;;;;;5012925;28;20084;-72
2021/07/19 06:37:35;;;;;;;12.23;8.27;;;19.00;99.90;;;;;;5014102;28;20034;-73
2021/07/19 06:40:00;;;;;;;8.90;8.00;;;19.10;99.90;;;;;;5014590;28;20378;-72
2021/07/19 06:42:26;;;;;;;14.05;7.97;;;19.10;99.90;;;;;;5014031;28;20114;-72
2021/07/19 06:44:57;;;;;;;9.35;7.88;;;19.20;99.90;;;;;;5013873;28;20043;-73
2021/07/19 06:47:26;;;;;;;9.73;7.47;;;19.20;99.90;;;;;;5002992;28;20041;-72
2021/07/19 06:49:54;;;;;;;12.48;7.68;;;19.30;99.90;;;;;;5010253;28;20046;-73
2021/07/19 06:52:19;;;;;;;10.27;7.97;;;19.30;99.90;;;;;;5013832;28;20057;-73
2021/07/19 06:54:45;;;;;;;9.13;8.10;;;19.30;99.90;;;;;;5013066;28;20053;-73
2021/07/19 06:57:12;;;;;;;16.52;8.57;;;19.40;99.90;;;;;;5013129;28;20057;-73
2021/07/19 06:59:37;;;;;;;11.07;7.10;;;19.50;99.90;;;;;;5013667;28;20045;-72
2021/07/19 07:02:03;;;;;;;11.80;7.25;;;19.60;99.90;;;;;;5012796;28;20474;-72
2021/07/19 07:04:29;;;;;;;7.00;5.95;;;19.90;99.90;;;;;;5012189;28;20057;-73
2021/07/19 07:06:55;;;;;;;8.95;7.03;;;19.70;99.90;;;;;;5017137;28;20025;-73
2021/07/19 07:09:21;;;;;;;8.20;6.68;;;19.80;99.90;;;;;;5023525;28;20061;-73
2021/07/19 07:11:46;;;;;;;10.52;6.20;;;19.90;99.90;;;;;;5012364;28;20402;-74
2021/07/19 07:14:12;;;;;;;8.38;6.13;;;19.90;99.90;;;;;;5013044;28;20037;-73
2021/07/19 07:16:37;;;;;;;6.43;5.25;;;20.00;99.90;;;;;;5012599;28;20021;-74
2021/07/19 07:19:04;;;;;;;6.72;5.38;;;20.10;99.90;;;;;;5012971;28;20028;-73
2021/07/19 07:21:32;;;;;;;5.85;5.15;;;20.20;99.90;;;;;;5013128;28;20356;-73
2021/07/19 07:23:59;;;;;;;6.28;5.10;;;20.40;99.90;;;;;;5012126;28;20601;-72
2021/07/19 07:26:26;;;;;;;9.10;4.60;;;20.50;99.90;;;;;;5013626;28;20053;-73
2021/07/19 07:28:52;;;;;;;6.03;4.35;;;20.50;99.90;;;;;;5000428;28;20041;-73
2021/07/19 07:31:18;;;;;;;6.43;4.88;;;20.50;99.90;;;;;;5010640;28;20048;-72
2021/07/19 07:33:44;;;;;;;6.90;5.07;;;20.60;99.90;;;;;;5013335;28;20022;-73
2021/07/19 07:36:09;;;;;;;5.78;4.75;;;20.70;99.90;;;;;;5013885;28;20492;-72
2021/07/19 07:38:35;;;;;;;8.00;4.43;;;20.70;99.90;;;;;;5013318;28;20041;-73
2021/07/19 07:41:01;;;;;;;6.38;4.35;;;20.80;99.90;;;;;;5012742;28;20050;-72
2021/07/19 07:43:27;;;;;;;5.90;4.57;;;20.80;99.90;;;;;;5012906;28;20081;-72
2021/07/19 07:45:53;;;;;;;6.68;4.88;;;20.80;99.90;;;;;;5012112;28;20425;-72
2021/07/19 07:48:19;;;;;;;5.32;4.78;;;21.00;99.90;;;;;;5013608;28;20057;-73
2021/07/19 07:50:44;;;;;;;5.18;4.68;;;21.00;99.90;;;;;;5013370;28;20029;-72
2021/07/19 07:53:10;;;;;;;5.72;4.53;;;21.10;99.90;;;;;;5013139;28;20061;-73
2021/07/19 07:55:37;;;;;;;6.32;4.90;;;21.10;99.90;;;;;;5013224;28;20096;-73
2021/07/19 07:58:04;;;;;;;6.55;5.80;;;21.10;99.90;;;;;;5012792;28;20042;-73
2021/07/19 08:00:30;;;;;;;5.35;4.85;;;21.00;99.90;;;;;;5011896;28;20109;-73
2021/07/19 08:02:56;;;;;;;6.35;5.10;;;21.10;99.90;;;;;;5012929;28;20442;-73
2021/07/19 08:05:21;;;;;;;5.75;5.15;;;21.30;99.90;;;;;;4999686;28;20061;-72
2021/07/19 08:07:47;;;;;;;6.00;5.50;;;21.50;99.90;;;;;;5012398;28;20422;-73
2021/07/19 08:10:14;;;;;;;5.88;5.00;;;21.50;99.90;;;;;;5012777;28;20037;-74
2021/07/19 08:12:43;;;;;;;6.50;5.60;;;21.50;99.90;;;;;;5014433;28;20030;-73
2021/07/19 08:15:10;;;;;;;6.45;5.45;;;21.50;99.90;;;;;;5014780;28;20037;-73
2021/07/19 08:17:35;;;;;;;9.07;5.57;;;21.50;99.90;;;;;;5016729;28;20543;-72
2021/07/19 08:20:01;;;;;;;6.93;5.82;;;21.50;99.90;;;;;;5015988;28;20018;-73
2021/07/19 08:22:27;;;;;;;7.85;6.97;;;21.50;99.90;;;;;;5016868;28;20053;-72
2021/07/19 08:24:53;;;;;;;6.93;6.22;;;21.60;99.90;;;;;;5016428;28;20489;-73
2021/07/19 08:27:19;;;;;;;6.80;5.80;;;21.70;99.90;;;;;;5001965;28;20053;-74
2021/07/19 08:29:44;;;;;;;6.97;6.28;;;21.80;99.90;;;;;;5002028;28;20028;-73
2021/07/19 08:32:10;;;;;;;9.85;7.18;;;21.80;99.90;;;;;;5016473;28;20331;-73
2021/07/19 08:34:36;;;;;;;8.02;6.38;;;21.90;99.90;;;;;;5015817;28;20021;-73
2021/07/19 08:37:02;;;;;;;6.20;5.55;;;22.20;99.90;;;;;;5015864;28;20122;-72
2021/07/19 08:39:28;;;;;;;7.63;5.47;;;22.50;99.90;;;;;;5016323;28;20041;-74
2021/07/19 08:41:53;;;;;;;6.72;6.13;;;22.80;99.90;;;;;;5015608;28;20021;-73
2021/07/19 08:44:19;;;;;;;7.82;6.75;;;22.90;99.90;;;;;;5016647;28;20022;-72
2021/07/19 08:46:47;;;;;;;10.55;7.30;;;23.00;99.90;;;;;;5015534;28;20022;-73
2021/07/19 08:49:13;;;;;;;7.57;6.88;;;23.10;99.90;;;;;;5015867;28;20040;-72
2021/07/19 08:51:42;;;;;;;9.52;6.38;;;23.00;99.90;;;;;;5016201;28;20018;-72
2021/07/19 08:54:12;;;;;;;9.93;6.95;;;23.00;99.90;;;;;;5015839;28;20095;-73
2021/07/19 08:56:43;;;;;;;7.80;6.82;;;22.90;99.90;;;;;;5014546;28;20053;-73
2021/07/19 08:59:16;;;;;;;10.02;6.75;;;22.60;99.90;;;;;;5016487;28;20041;-73
2021/07/19 09:01:42;;;;;;;9.38;6.75;;;22.50;99.90;;;;;;5015850;28;20056;-73
2021/07/19 09:04:08;;;;;;;7.97;6.78;;;22.40;99.90;;;;;;5014559;28;20026;-72
2021/07/19 09:06:34;;;;;;;8.23;6.72;;;22.40;99.90;;;;;;5015147;28;20378;-74
2021/07/19 09:09:02;;;;;;;9.27;6.75;;;22.50;99.90;;;;;;5015045;28;20022;-74
2021/07/19 09:11:28;;;;;;;12.40;7.05;;;22.60;99.90;;;;;;5014208;28;20046;-73
2021/07/19 09:13:56;;;;;;;11.25;7.65;;;22.50;99.90;;;;;;5015102;28;20028;-73
2021/07/19 09:16:22;;;;;;;9.40;7.07;;;22.50;99.90;;;;;;5015060;28;20521;-73
2021/07/19 09:19:11;;;;;;;7.60;6.25;;;22.50;99.90;;;;;;5015349;28;20069;-74
2021/07/19 09:21:38;;;;;;;9.82;6.82;;;22.60;99.90;;;;;;5015682;28;20049;-73
2021/07/19 09:24:10;;;;;;;9.95;7.38;;;22.60;99.90;;;;;;5014350;28;20508;-73
2021/07/19 09:26:39;;;;;;;11.60;8.85;;;22.60;99.90;;;;;;5014849;28;20026;-73
2021/07/19 09:29:07;;;;;;;9.35;6.65;;;22.60;99.90;;;;;;5001223;28;20022;-73
2021/07/19 09:31:44;;;;;;;13.73;7.10;;;22.70;99.90;;;;;;5014423;28;20022;-72
2021/07/19 09:34:20;;;;;;;10.48;7.40;;;22.90;99.90;;;;;;5015381;28;20026;-72
2021/07/19 09:36:58;;;;;;;7.05;6.40;;;23.10;99.90;;;;;;5015015;28;20032;-72
2021/07/19 09:39:25;;;;;;;8.43;6.70;;;23.30;99.90;;;;;;5015139;28;20429;-73
2021/07/19 09:41:51;;;;;;;12.60;5.95;;;23.60;99.90;;;;;;5015505;28;20029;-72
2021/07/19 09:44:21;;;;;;;8.02;5.68;;;23.70;99.90;;;;;;5015547;28;20031;-73
2021/07/19 09:46:46;;;;;;;6.45;5.45;;;23.80;99.90;;;;;;5015380;28;20045;-73
2021/07/19 09:49:12;;;;;;;7.63;6.30;;;24.00;99.90;;;;;;5015811;28;20512;-74
2021/07/19 09:51:38;;;;;;;8.43;6.22;;;24.20;99.90;;;;;;5014940;28;20426;-74
2021/07/19 09:54:13;;;;;;;7.65;6.10;;;24.30;99.90;;;;;;5015315;28;20037;-74
2021/07/19 09:56:41;;;;;;;6.55;5.95;;;24.30;99.90;;;;;;5015167;28;20481;-73
2021/07/19 09:59:13;;;;;;;10.82;6.50;;;24.10;99.20;;;;;;5014023;28;20403;-73
2021/07/19 10:01:43;;;;;;;9.30;6.40;;;24.00;99.90;;;;;;5015142;28;20026;-73
2021/07/19 10:04:18;;;;;;;8.38;6.05;;;24.00;99.90;;;;;;5015493;28;20105;-73
2021/07/19 10:06:46;;;;;;;9.25;5.85;;;24.00;99.20;;;;;;5014443;28;20030;-76
2021/07/19 10:09:13;;;;;;;8.02;5.65;;;24.00;99.90;;;;;;5014684;28;20359;-72
2021/07/19 10:11:44;;;;;;;10.73;6.80;;;24.00;99.90;;;;;;5014785;28;20057;-73
2021/07/19 10:14:10;;;;;;;;;;;23.90;99.10;;;;;;5014732;28;20099;-73
2021/07/19 10:16:37;;;;;;;6.22;5.50;;;23.80;99.90;;;;;;5015435;28;19928;-73
2021/07/19 10:19:04;;;;;;;7.30;5.70;;;23.90;99.40;;;;;;5000630;28;20040;-74
2021/07/19 10:21:32;;;;;;;8.43;5.88;;;23.80;99.30;;;;;;5013987;28;20046;-73
2021/07/19 10:24:09;;;;;;;9.07;7.70;;;23.70;99.70;;;;;;5014160;28;20036;-73
2021/07/19 10:26:36;;;;;;;8.63;6.30;;;23.60;99.50;;;;;;5014211;28;20037;-73
2021/07/19 10:29:06;;;;;;;7.57;5.90;;;23.50;99.60;;;;;;5000393;28;20030;-73
2021/07/19 10:31:34;;;;;;;7.20;6.30;;;23.60;99.20;;;;;;5014603;28;20589;-74
2021/07/19 10:34:02;;;;;;;8.77;6.47;;;23.70;98.80;;;;;;5013668;28;20041;-72
2021/07/19 10:36:40;;;;;;;9.80;7.47;;;23.90;98.70;;;;;;5014345;28;20394;-74
2021/07/19 10:39:13;;;;;;;9.10;5.95;;;24.10;98.70;;;;;;5012702;28;20138;-72
2021/07/19 10:41:39;;;;;;;8.05;6.00;;;24.00;97.60;;;;;;5013546;28;20029;-74
2021/07/19 10:44:08;;;;;;;8.13;5.80;;;24.00;97.20;;;;;;5014127;28;20403;-73
2021/07/19 10:46:34;;;;;;;7.53;5.78;;;23.70;97.70;;;;;;5013567;28;20508;-73
2021/07/19 10:49:11;;;;;;;9.45;6.03;;;23.80;98.10;;;;;;5014145;28;20026;-73
2021/07/19 10:51:45;;;;;;;6.90;5.97;;;23.90;98.00;;;;;;5015962;28;20045;-74
2021/07/19 10:54:23;;;;;;;8.85;5.85;;;24.20;97.70;;;;;;5017940;28;20022;-73
2021/07/19 10:56:51;;;;;;;6.78;6.03;;;24.30;96.70;;;;;;5014380;28;20462;-73
2021/07/19 10:59:30;;;;;;;7.13;6.05;;;24.40;96.80;;;;;;5014177;28;20038;-73
2021/07/19 11:01:57;;;;;;;8.40;5.95;;;24.50;95.70;;;;;;5013141;28;20065;-73
2021/07/19 11:04:23;;;;;;;8.60;5.65;;;24.20;95.90;;;;;;5013909;28;20088;-73
2021/07/19 11:06:56;;;;;;;6.50;5.30;;;24.00;96.00;;;;;;5013107;28;20110;-74
2021/07/19 11:09:36;;;;;;;8.25;6.13;;;23.70;95.60;;;;;;5013008;28;20037;-72
2021/07/19 11:12:13;;;;;;;10.45;6.88;;;23.60;96.10;;;;;;5010409;28;20052;-73
2021/07/19 11:14:55;;;;;;;10.10;6.53;;;23.70;96.70;;;;;;5012928;28;20773;-72
2021/07/19 11:17:22;;;;;;;10.00;6.47;;;23.70;96.80;;;;;;5012353;28;20037;-73
2021/07/19 11:19:54;;;;;;;8.20;6.15;;;23.70;97.20;;;;;;5012657;28;20021;-73
2021/07/19 11:22:23;;;;;;;8.20;6.03;;;24.00;97.00;;;;;;5008131;28;20065;-73
2021/07/19 11:24:51;;;;;;;12.82;7.47;;;24.30;97.00;;;;;;4985741;28;20358;-73
2021/07/19 11:27:38;;;;;;;7.82;6.47;;;24.40;96.00;;;;;;5012625;28;20036;-73
2021/07/19 11:30:04;;;;;;;7.63;6.35;;;24.40;96.50;;;;;;5011321;28;20033;-73
2021/07/19 11:32:32;;;;;;;7.18;6.47;;;24.50;96.80;;;;;;5012613;28;20029;-72
2021/07/19 11:35:36;;;;;;;9.30;6.65;;;24.40;96.20;;;;;;5012785;28;20100;-73
2021/07/19 11:38:13;;;;;;;8.32;6.28;;;24.60;96.50;;;;;;4993715;28;20564;-74
2021/07/19 11:40:40;;;;;;;7.32;6.40;;;24.70;95.70;;;;;;5013922;28;20022;-75
2021/07/19 11:43:10;;;;;;;13.80;7.63;;;25.00;95.70;;;;;;5012308;28;20026;-72
2021/07/19 11:45:41;;;;;;;8.93;8.02;;;25.20;94.40;;;;;;5012170;28;20052;-73
2021/07/19 11:48:07;;;;;;;9.88;7.07;;;25.10;94.70;;;;;;5012257;28;20026;-73
2021/07/19 11:50:33;;;;;;;10.77;6.82;;;25.20;94.50;;;;;;5012378;28;20034;-72
2021/07/19 11:52:59;;;;;;;11.52;7.38;;;25.20;94.30;;;;;;5011805;28;20022;-73
2021/07/19 11:55:25;;;;;;;8.90;6.75;;;25.00;94.20;;;;;;5012788;28;20488;-72
2021/07/19 11:57:59;;;;;;;8.35;6.45;;;24.80;93.90;;;;;;5012274;28;20165;-73
2021/07/19 12:00:32;;;;;;;14.07;6.40;;;24.60;94.90;;;;;;5012846;28;20113;-73
2021/07/19 12:03:05;;;;;;;10.75;6.88;;;24.70;94.20;;;;;;5012139;28;20508;-72
2021/07/19 12:05:32;;;;;;;6.57;5.68;;;23.90;93.80;;;;;;4998294;28;20022;-73
2021/07/19 12:08:07;;;;;;;10.13;6.55;;;24.50;94.80;;;;;;5012722;28;20037;-74
2021/07/19 12:10:36;;;;;;;10.18;6.97;;;24.70;93.70;;;;;;5012519;28;20038;-73
2021/07/19 12:13:15;;;;;;;11.52;6.85;;;24.90;93.70;;;;;;5011547;28;20022;-73
2021/07/19 12:15:51;;;;;;;7.65;5.78;;;24.80;93.70;;;;;;5013079;28;20464;-73
2021/07/19 12:18:34;;;;;;;9.80;6.65;;;24.70;93.50;;;;;;5012361;28;20041;-72
2021/07/19 12:21:10;;;;;;;13.07;6.55;;;24.60;94.60;;;;;;5000730;28;20440;-72
2021/07/19 12:23:38;;;;;;;9.90;6.10;;;24.70;94.20;;;;;;5013275;28;20061;-72
2021/07/19 12:26:04;;;;;;;9.40;6.07;;;24.80;94.30;;;;;;5011852;28;20025;-73
2021/07/19 12:28:33;;;;;;;9.07;6.10;;;25.10;94.10;;;;;;5012707;28;20037;-73
2021/07/19 12:31:14;;;;;;;6.70;5.88;;;25.20;93.40;;;;;;5013043;28;20033;-73
2021/07/19 12:33:40;;;;;;;7.85;6.10;;;25.20;93.00;;;;;;5012180;28;20056;-73
2021/07/19 12:36:05;;;;;;;8.88;6.55;;;25.00;93.70;;;;;;5012241;28;20018;-73
2021/07/19 12:38:34;;;;;;;11.00;5.80;;;24.80;93.90;;;;;;5012640;28;20038;-73
2021/07/19 12:41:00;;;;;;;8.43;6.35;;;24.80;93.50;;;;;;5012277;28;20041;-72
2021/07/19 12:43:25;;;;;;;11.43;6.50;;;24.90;93.70;;;;;;5012686;28;20482;-73
2021/07/19 12:45:51;;;;;;;7.60;6.85;;;24.80;93.60;;;;;;5012213;28;20029;-73
2021/07/19 12:48:17;;;;;;;7.38;6.10;;;25.00;93.70;;;;;;5011058;28;20524;-72
2021/07/19 12:50:42;;;;;;;7.15;6.30;;;25.30;93.50;;;;;;5012186;28;20080;-74